Portada
METAR-TAF:

METAR-TAF

Aeroports :

Shijiazhuang, Xina

latitud: 38-16-51N, longitud: 114-41-48E, altitud: 233 m

Observació

L'informe es va fer fa 1 hora i 9 minuts, a les 11:00 UTC
Vent 2 kt amb direcció variable
Temperatura 7°C
Humitat 87%
Pressió 1027 hPa
Visibilitat 10 km o més
sense núvols per sota de 1500 mi sense presència de cumulonimbus.

METAR: ZBSJ 091100Z VRB01MPS CAVOK 07/05 Q1027 NOSIG

Hora: 20:09 (12:09 UTC)

Pronòstic

L'informe es va fer fa 5 hores i 1 minuts, a les 07:08 UTC
Pronòstic vàlid del 09 a les 12 UTC al 10 a les 12 UTC
Vent 8 kt del Est/Nord-Est
Visibilitat: 5000 m
Cel cobert a una alçada de 4000 ft
boirina

TAF: ZBSJ 090708Z 0912/1012 06004MPS 5000 BR OVC040 TX08/1007Z TN03/0921Z

Observacions i pronòstics meteorològics de més de 4000 aeroports (METAR i TAF).

Les estacions disponibles són els punts grocs i vermells al mapa.

Posi el ratolí al punt desitjat per veure el nom de l'estació.

Feu clic per veure les observacions i els pronòstics meteorològics.

Per canviar el mapa: feu clic els botons verds amb una creu de color negre per apropar; al botó verd amb un guió per allunyar la imatge; o en les fletxes verdes per a mapes adjacents.


METAR-TAF: